Time;durP1;ratioP1;P1;durP2;ratioP2;P2;SDS_P1;SDS_P2;PMS_P1;PMS_P2;Temp;Humidity;BMP_temperature;BMP_pressure;BME280_temperature;BME280_humidity;BME280_pressure;Samples;Min_cycle;Max_cycle;Signal;HPM_P1;HPM_P2
2023/09/20 00:00:07;;;;;;;2.80;2.50;;;22.00;87.10;;;;;;5059159;28;20426;-69
2023/09/20 00:02:36;;;;;;;3.47;2.60;;;22.00;87.10;;;;;;5025981;28;20516;-69
2023/09/20 00:05:02;;;;;;;3.53;2.57;;;22.00;87.20;;;;;;5042159;28;21122;-68
2023/09/20 00:07:30;;;;;;;2.80;2.50;;;22.00;87.20;;;;;;5031600;28;20447;-68
2023/09/20 00:09:58;;;;;;;3.03;2.70;;;22.00;87.10;;;;;;5014794;28;20537;-70
2023/09/20 00:12:24;;;;;;;2.97;2.67;;;22.00;87.20;;;;;;5031712;28;20503;-69
2023/09/20 00:14:50;;;;;;;3.10;2.30;;;22.00;87.20;;;;;;5027295;28;20425;-68
2023/09/20 00:17:18;;;;;;;4.50;2.70;;;22.00;87.30;;;;;;5033530;28;20489;-70
2023/09/20 00:19:45;;;;;;;3.83;2.70;;;22.00;87.30;;;;;;5024065;28;21148;-69
2023/09/20 00:22:13;;;;;;;3.90;2.50;;;22.00;87.20;;;;;;5064878;28;21164;-69
2023/09/20 00:24:41;;;;;;;2.30;2.10;;;22.00;87.30;;;;;;5054030;28;20457;-69
2023/09/20 00:27:08;;;;;;;2.53;2.33;;;22.00;87.40;;;;;;5041900;28;20418;-70
2023/09/20 00:29:34;;;;;;;3.40;2.60;;;22.00;87.50;;;;;;5026306;28;20436;-68
2023/09/20 00:32:02;;;;;;;4.33;2.77;;;22.00;87.40;;;;;;5061175;28;20447;-69
2023/09/20 00:34:31;;;;;;;3.60;3.00;;;22.00;87.40;;;;;;5047559;28;20429;-68
2023/09/20 00:36:59;;;;;;;3.83;2.73;;;22.00;87.50;;;;;;5045943;28;20404;-69
2023/09/20 00:39:28;;;;;;;5.50;2.77;;;22.00;87.50;;;;;;5039431;28;20918;-70
2023/09/20 00:41:56;;;;;;;2.73;2.53;;;22.00;87.60;;;;;;5035558;28;20450;-69
2023/09/20 00:44:25;;;;;;;3.40;2.60;;;22.00;87.60;;;;;;5028544;28;20781;-69
2023/09/20 00:46:52;;;;;;;2.73;2.53;;;22.00;87.60;;;;;;5050465;28;20812;-68
2023/09/20 00:49:20;;;;;;;3.23;2.93;;;22.00;87.60;;;;;;5032178;28;20439;-69
2023/09/20 00:51:48;;;;;;;3.70;3.00;;;22.00;87.60;;;;;;5017270;28;20456;-69
2023/09/20 00:54:19;;;;;;;2.87;2.63;;;22.00;87.60;;;;;;5009190;28;20438;-70
2023/09/20 00:56:47;;;;;;;2.90;2.70;;;22.00;87.70;;;;;;5041903;28;20425;-69
2023/09/20 00:59:15;;;;;;;3.23;2.93;;;22.00;87.80;;;;;;5039189;28;20453;-69
2023/09/20 01:01:41;;;;;;;3.90;2.63;;;22.00;87.80;;;;;;5041620;28;21160;-68
2023/09/20 01:04:08;;;;;;;3.63;2.80;;;22.00;87.70;;;;;;5029471;28;20452;-70
2023/09/20 01:06:41;;;;;;;2.60;2.40;;;22.00;87.80;;;;;;5013637;28;20478;-70
2023/09/20 01:09:09;;;;;;;4.60;3.37;;;21.90;87.70;;;;;;5034651;28;21262;-69
2023/09/20 01:11:37;;;;;;;4.47;3.10;;;21.90;87.70;;;;;;5025235;28;20468;-70
2023/09/20 01:14:06;;;;;;;3.20;2.90;;;21.90;87.80;;;;;;5040127;28;20432;-69
2023/09/20 01:16:33;;;;;;;3.30;3.00;;;21.90;87.80;;;;;;5034293;28;20449;-70
2023/09/20 01:19:04;;;;;;;3.23;2.50;;;21.90;87.80;;;;;;5000008;28;20429;-69
2023/09/20 01:21:32;;;;;;;3.13;2.93;;;21.90;87.80;;;;;;5040991;28;20446;-70
2023/09/20 01:24:02;;;;;;;3.23;2.90;;;21.90;87.90;;;;;;5032560;28;20440;-70
2023/09/20 01:26:30;;;;;;;2.90;2.67;;;21.90;88.00;;;;;;5009875;28;21362;-69
2023/09/20 01:28:56;;;;;;;3.53;3.23;;;21.90;88.00;;;;;;5031618;28;20547;-69
2023/09/20 01:31:22;;;;;;;4.13;2.90;;;21.90;88.00;;;;;;5029819;28;20448;-69
2023/09/20 01:33:54;;;;;;;7.00;3.17;;;21.90;88.00;;;;;;5049335;28;21105;-69
2023/09/20 01:36:22;;;;;;;4.23;3.17;;;21.90;88.00;;;;;;5044135;28;20445;-69
2023/09/20 01:38:48;;;;;;;3.43;3.13;;;21.90;88.10;;;;;;5042129;28;20440;-70
2023/09/20 01:41:18;;;;;;;4.47;2.97;;;21.90;88.10;;;;;;5024530;28;20447;-69
2023/09/20 01:43:45;;;;;;;3.63;2.67;;;21.90;88.10;;;;;;5057768;28;20626;-69
2023/09/20 01:46:11;;;;;;;5.87;3.40;;;21.90;88.20;;;;;;5058426;28;20484;-69
2023/09/20 01:48:40;;;;;;;3.03;2.77;;;21.90;88.20;;;;;;5028174;28;20516;-70
2023/09/20 01:51:06;;;;;;;6.10;3.33;;;21.90;88.20;;;;;;5012308;28;20995;-69
2023/09/20 01:53:32;;;;;;;2.93;2.60;;;21.90;88.30;;;;;;5039893;28;20420;-69
2023/09/20 01:56:00;;;;;;;3.17;2.87;;;21.90;88.30;;;;;;5010727;28;20533;-68
2023/09/20 01:58:26;;;;;;;3.50;3.20;;;21.90;88.30;;;;;;5042429;28;20512;-69
2023/09/20 02:00:52;;;;;;;3.50;2.63;;;21.90;88.30;;;;;;5022168;28;20442;-69
2023/09/20 02:03:18;;;;;;;2.93;2.60;;;21.90;88.30;;;;;;5030351;28;20901;-70
2023/09/20 02:05:47;;;;;;;3.30;3.00;;;21.90;88.40;;;;;;5021329;28;20252;-69
2023/09/20 02:08:14;;;;;;;3.27;2.90;;;21.90;88.40;;;;;;5040559;28;20432;-68
2023/09/20 02:10:44;;;;;;;4.20;2.80;;;21.90;88.40;;;;;;5019890;28;20964;-69
2023/09/20 02:13:18;;;;;;;3.77;3.27;;;21.90;88.50;;;;;;5020122;28;20438;-69
2023/09/20 02:15:45;;;;;;;5.47;3.03;;;21.90;88.40;;;;;;5020400;28;20473;-69
2023/09/20 02:18:11;;;;;;;4.83;2.93;;;21.80;88.40;;;;;;5058363;28;20463;-69
2023/09/20 02:20:38;;;;;;;3.93;3.13;;;21.80;88.40;;;;;;5039422;28;20539;-68
2023/09/20 02:23:12;;;;;;;4.17;3.00;;;21.80;88.50;;;;;;5043396;28;20440;-70
2023/09/20 02:25:40;;;;;;;2.93;2.73;;;21.80;88.50;;;;;;5027654;28;20550;-70
2023/09/20 02:28:07;;;;;;;4.07;3.77;;;21.80;88.40;;;;;;5040069;28;20444;-69
2023/09/20 02:30:35;;;;;;;4.37;3.03;;;21.80;88.50;;;;;;5020050;28;20477;-69
2023/09/20 02:33:05;;;;;;;4.33;3.53;;;21.80;88.50;;;;;;5039425;28;20983;-70
2023/09/20 02:35:32;;;;;;;3.40;3.20;;;21.80;88.60;;;;;;5007507;28;21086;-69
2023/09/20 02:38:05;;;;;;;2.93;2.70;;;21.80;88.60;;;;;;5023296;28;20444;-69
2023/09/20 02:40:36;;;;;;;4.70;2.97;;;21.80;88.70;;;;;;5030446;28;20521;-69
2023/09/20 02:43:08;;;;;;;3.53;3.23;;;21.80;89.50;;;;;;5037618;28;20440;-68
2023/09/20 02:45:36;;;;;;;3.47;3.17;;;21.80;88.60;;;;;;5060005;28;20845;-70
2023/09/20 02:48:04;;;;;;;3.23;2.93;;;21.80;88.70;;;;;;5033023;28;20429;-68
2023/09/20 02:50:30;;;;;;;3.43;3.13;;;21.80;88.70;;;;;;5039949;28;20433;-69
2023/09/20 02:52:59;;;;;;;3.13;2.83;;;21.80;88.70;;;;;;5019964;28;21280;-69
2023/09/20 02:55:31;;;;;;;3.47;3.07;;;21.80;88.70;;;;;;5019096;28;20422;-69
2023/09/20 02:57:59;;;;;;;3.63;3.33;;;21.80;88.70;;;;;;5029845;28;20785;-69
2023/09/20 03:00:32;;;;;;;3.60;3.30;;;21.80;88.80;;;;;;5023275;28;20947;-69
2023/09/20 03:03:08;;;;;;;4.70;3.50;;;21.80;88.80;;;;;;5025595;28;20442;-69
2023/09/20 03:05:35;;;;;;;3.67;2.93;;;21.80;88.80;;;;;;5029416;28;20471;-68
2023/09/20 03:08:13;;;;;;;4.10;2.90;;;21.70;88.70;;;;;;5037388;28;20525;-69
2023/09/20 03:10:43;;;;;;;3.40;3.10;;;21.70;88.80;;;;;;5008611;28;20465;-68
2023/09/20 03:13:16;;;;;;;3.40;3.10;;;21.70;88.80;;;;;;5043058;28;20457;-69
2023/09/20 03:15:43;;;;;;;5.90;3.47;;;21.70;88.80;;;;;;5014548;28;20437;-68
2023/09/20 03:18:13;;;;;;;3.80;3.50;;;21.70;88.90;;;;;;5043444;28;20437;-68
2023/09/20 03:20:43;;;;;;;3.37;3.00;;;21.70;88.90;;;;;;5042917;28;20446;-68
2023/09/20 03:23:16;;;;;;;3.47;3.17;;;21.70;88.90;;;;;;5034574;28;20949;-69
2023/09/20 03:25:45;;;;;;;4.30;3.10;;;21.70;88.90;;;;;;5051716;28;20550;-68
2023/09/20 03:28:22;;;;;;;3.40;3.10;;;21.70;89.00;;;;;;5017607;28;20854;-67
2023/09/20 03:30:51;;;;;;;3.70;3.33;;;21.70;89.00;;;;;;5033703;28;20439;-68
2023/09/20 03:33:20;;;;;;;3.73;3.43;;;21.70;89.10;;;;;;5004301;28;20441;-67
2023/09/20 03:35:47;;;;;;;3.57;3.27;;;21.70;89.10;;;;;;5015131;28;20481;-68
2023/09/20 03:38:19;;;;;;;3.90;3.40;;;21.70;89.10;;;;;;5020230;28;20995;-67
2023/09/20 03:40:51;;;;;;;3.80;3.10;;;21.70;89.10;;;;;;5011371;28;20457;-68
2023/09/20 03:43:17;;;;;;;2.93;2.73;;;21.70;89.20;;;;;;5032960;28;20972;-68
2023/09/20 03:45:50;;;;;;;3.70;3.27;;;21.70;89.20;;;;;;5022425;28;20702;-68
2023/09/20 03:48:16;;;;;;;4.13;3.57;;;21.60;89.10;;;;;;5006820;28;20449;-69
2023/09/20 03:50:45;;;;;;;4.30;3.40;;;21.60;89.10;;;;;;5008152;28;20465;-68
2023/09/20 03:53:11;;;;;;;4.00;3.60;;;21.60;89.20;;;;;;5019996;28;20207;-68
2023/09/20 03:55:40;;;;;;;4.00;3.70;;;21.60;89.20;;;;;;5018805;28;20431;-69
2023/09/20 03:58:07;;;;;;;3.33;3.03;;;21.60;89.20;;;;;;5043537;28;20527;-68
2023/09/20 04:00:34;;;;;;;3.70;3.40;;;21.60;89.20;;;;;;5022708;28;20545;-70
2023/09/20 04:03:01;;;;;;;3.87;3.30;;;21.60;89.30;;;;;;5022791;28;20952;-69
2023/09/20 04:05:31;;;;;;;3.50;3.13;;;21.60;89.30;;;;;;5006494;28;20476;-69
2023/09/20 04:08:00;;;;;;;2.90;2.70;;;21.60;89.30;;;;;;5024610;28;21386;-68
2023/09/20 04:10:31;;;;;;;3.90;3.37;;;21.60;89.30;;;;;;5032316;28;20423;-68
2023/09/20 04:12:57;;;;;;;4.20;3.40;;;21.60;89.40;;;;;;5024753;28;20521;-68
2023/09/20 04:15:24;;;;;;;3.40;3.10;;;21.60;89.40;;;;;;5009960;28;20475;-69
2023/09/20 04:17:53;;;;;;;3.67;3.00;;;21.60;89.40;;;;;;5009483;28;20440;-68
2023/09/20 04:20:26;;;;;;;3.23;3.03;;;21.60;89.40;;;;;;5042159;28;20444;-69
2023/09/20 04:22:54;;;;;;;3.30;3.00;;;21.60;89.50;;;;;;5025394;28;20463;-68
2023/09/20 04:25:22;;;;;;;3.80;3.50;;;21.50;89.50;;;;;;5042734;28;21224;-68
2023/09/20 04:27:50;;;;;;;4.33;3.47;;;21.50;89.50;;;;;;5028441;28;20545;-69
2023/09/20 04:30:18;;;;;;;3.97;3.53;;;21.50;89.40;;;;;;5040473;28;20694;-67
2023/09/20 04:32:51;;;;;;;3.50;3.07;;;21.50;89.50;;;;;;5043416;28;20484;-70
2023/09/20 04:35:24;;;;;;;3.67;3.37;;;21.50;90.10;;;;;;5028684;28;20989;-69
2023/09/20 04:37:50;;;;;;;5.30;4.03;;;21.50;89.60;;;;;;5033790;28;20500;-70
2023/09/20 04:40:19;;;;;;;3.93;3.63;;;21.50;89.60;;;;;;5049527;28;20465;-69
2023/09/20 04:42:47;;;;;;;3.77;3.57;;;21.50;89.60;;;;;;5058953;28;20915;-70
2023/09/20 04:45:16;;;;;;;4.00;3.67;;;21.50;89.60;;;;;;5018220;28;20337;-70
2023/09/20 04:47:46;;;;;;;4.20;3.10;;;21.50;89.70;;;;;;5010044;28;20449;-69
2023/09/20 04:50:15;;;;;;;3.40;3.10;;;21.50;89.70;;;;;;5054424;28;20429;-70
2023/09/20 04:52:50;;;;;;;3.60;3.30;;;21.50;89.70;;;;;;5042651;28;20440;-69
2023/09/20 04:55:19;;;;;;;4.60;3.57;;;21.50;89.80;;;;;;5023473;28;21006;-69
2023/09/20 04:57:47;;;;;;;5.30;3.67;;;21.50;89.80;;;;;;5038856;28;20509;-70
2023/09/20 05:00:16;;;;;;;3.87;3.47;;;21.50;89.90;;;;;;5021611;28;20423;-70
2023/09/20 05:02:44;;;;;;;4.20;3.37;;;21.50;89.80;;;;;;5034105;28;20434;-71
2023/09/20 05:05:12;;;;;;;3.57;3.27;;;21.40;89.80;;;;;;5023181;28;20481;-72
2023/09/20 05:07:40;;;;;;;3.60;3.30;;;21.40;89.90;;;;;;5001889;28;20526;-69
2023/09/20 05:10:10;;;;;;;3.90;3.57;;;21.40;90.00;;;;;;5031463;28;20427;-69
2023/09/20 05:12:38;;;;;;;3.90;3.60;;;21.40;89.90;;;;;;5032088;28;20454;-69
2023/09/20 05:15:05;;;;;;;3.87;3.57;;;21.40;89.90;;;;;;5014935;28;21237;-69
2023/09/20 05:17:34;;;;;;;3.87;3.57;;;21.40;89.90;;;;;;5020824;28;21116;-73
2023/09/20 05:20:00;;;;;;;3.47;3.13;;;21.40;90.00;;;;;;5028987;28;20527;-73
2023/09/20 05:22:30;;;;;;;3.90;3.60;;;21.40;90.00;;;;;;5029583;28;20462;-73
2023/09/20 05:24:59;;;;;;;4.70;3.40;;;21.40;90.00;;;;;;5045584;28;20949;-74
2023/09/20 05:27:26;;;;;;;4.13;3.60;;;21.40;90.00;;;;;;5056952;28;20454;-73
2023/09/20 05:29:58;;;;;;;3.47;3.17;;;21.40;90.00;;;;;;5062170;28;20417;-71
2023/09/20 05:32:24;;;;;;;3.97;3.17;;;21.40;90.00;;;;;;5045918;28;20904;-71
2023/09/20 05:34:54;;;;;;;4.20;3.80;;;21.40;90.00;;;;;;5063329;28;20428;-71
2023/09/20 05:37:20;;;;;;;4.30;3.03;;;21.30;90.00;;;;;;5048907;28;21077;-72
2023/09/20 05:39:49;;;;;;;3.00;2.70;;;21.40;90.10;;;;;;5043145;28;20439;-72
2023/09/20 05:42:22;;;;;;;4.00;3.27;;;21.30;90.00;;;;;;5078333;28;20447;-72
2023/09/20 05:44:51;;;;;;;3.33;3.03;;;21.30;90.00;;;;;;5061545;28;20516;-72
2023/09/20 05:47:19;;;;;;;3.00;2.70;;;21.30;90.00;;;;;;5078383;28;21006;-72
2023/09/20 05:49:45;;;;;;;2.93;2.73;;;21.30;90.00;;;;;;5049952;28;20239;-72
2023/09/20 05:52:13;;;;;;;4.70;2.60;;;21.30;90.00;;;;;;5050789;28;20541;-72
2023/09/20 05:54:44;;;;;;;3.50;3.20;;;21.30;90.10;;;;;;5064202;28;20456;-72
2023/09/20 05:57:12;;;;;;;3.83;3.17;;;21.30;90.10;;;;;;5043395;28;20500;-72
2023/09/20 05:59:38;;;;;;;3.43;3.13;;;21.30;90.10;;;;;;5061742;28;20426;-71
2023/09/20 06:02:08;;;;;;;3.50;3.17;;;21.30;90.10;;;;;;5068329;28;21319;-71
2023/09/20 06:04:35;;;;;;;3.90;2.97;;;21.30;90.10;;;;;;5035236;28;20451;-71
2023/09/20 06:07:04;;;;;;;6.33;3.03;;;21.30;90.20;;;;;;5028041;28;20448;-71
2023/09/20 06:09:31;;;;;;;3.93;3.53;;;21.30;90.20;;;;;;5032898;28;20509;-72
2023/09/20 06:11:57;;;;;;;2.97;2.77;;;21.30;90.20;;;;;;5021234;28;20840;-71
2023/09/20 06:14:28;;;;;;;4.00;2.90;;;21.30;90.20;;;;;;5047355;28;20436;-72
2023/09/20 06:16:58;;;;;;;3.60;3.20;;;21.20;90.10;;;;;;5033559;28;20452;-72
2023/09/20 06:19:30;;;;;;;3.40;3.10;;;21.20;90.20;;;;;;5058888;28;20954;-71
2023/09/20 06:21:59;;;;;;;3.73;3.43;;;21.20;90.20;;;;;;5059868;28;20968;-71
2023/09/20 06:24:25;;;;;;;3.03;2.80;;;21.20;90.20;;;;;;5046624;28;20458;-71
2023/09/20 06:26:58;;;;;;;3.40;3.10;;;21.20;90.20;;;;;;5043593;28;20488;-71
2023/09/20 06:29:24;;;;;;;4.07;3.20;;;21.20;90.20;;;;;;5030798;28;20863;-71
2023/09/20 06:31:53;;;;;;;4.10;3.60;;;21.10;90.20;;;;;;5025869;28;21390;-71
2023/09/20 06:34:26;;;;;;;2.93;2.73;;;21.20;90.30;;;;;;5059761;28;20438;-71
2023/09/20 06:36:52;;;;;;;7.60;3.87;;;21.20;90.30;;;;;;5021861;28;20446;-72
2023/09/20 06:39:19;;;;;;;3.23;2.93;;;21.20;90.30;;;;;;5045019;28;20862;-71
2023/09/20 06:41:49;;;;;;;4.93;3.00;;;21.20;90.30;;;;;;5023963;28;20455;-71
2023/09/20 06:44:15;;;;;;;3.87;3.30;;;21.20;90.30;;;;;;5011287;28;20464;-71
2023/09/20 06:46:44;;;;;;;3.87;3.33;;;21.20;90.30;;;;;;5019381;28;20471;-71
2023/09/20 06:49:11;;;;;;;5.57;3.13;;;21.20;90.40;;;;;;5033504;28;20521;-70
2023/09/20 06:51:42;;;;;;;2.90;2.70;;;21.20;90.40;;;;;;5050356;28;21024;-70
2023/09/20 06:54:08;;;;;;;3.30;3.00;;;21.20;90.40;;;;;;5061262;28;21223;-70
2023/09/20 06:56:36;;;;;;;3.83;3.10;;;21.20;90.40;;;;;;5075240;28;20436;-70
2023/09/20 06:59:05;;;;;;;3.80;3.30;;;21.20;90.40;;;;;;5024421;28;20639;-70
2023/09/20 07:01:34;;;;;;;4.93;3.13;;;21.20;90.40;;;;;;5057186;28;20504;-70
2023/09/20 07:04:04;;;;;;;4.47;2.93;;;21.20;90.40;;;;;;5070963;28;20916;-70
2023/09/20 07:06:31;;;;;;;3.67;3.13;;;21.20;90.50;;;;;;5004737;28;20563;-70
2023/09/20 07:08:59;;;;;;;3.37;3.17;;;21.20;90.50;;;;;;5038614;28;20535;-71
2023/09/20 07:11:29;;;;;;;3.27;2.97;;;21.20;90.50;;;;;;5026542;28;20550;-70
2023/09/20 07:13:55;;;;;;;3.10;2.90;;;21.10;90.40;;;;;;5048179;28;20502;-70
2023/09/20 07:16:21;;;;;;;5.93;3.63;;;21.10;90.50;;;;;;5033951;28;20555;-71
2023/09/20 07:18:48;;;;;;;2.90;2.70;;;21.10;90.50;;;;;;5038669;28;20494;-71
2023/09/20 07:21:16;;;;;;;3.47;3.20;;;21.10;90.50;;;;;;5027086;28;20463;-71
2023/09/20 07:23:42;;;;;;;4.10;3.07;;;21.10;90.50;;;;;;5023828;28;20433;-70
2023/09/20 07:26:09;;;;;;;4.63;3.30;;;21.10;90.50;;;;;;5020883;28;20562;-70
2023/09/20 07:28:46;;;;;;;3.40;3.10;;;21.10;90.50;;;;;;5045697;28;20955;-71
2023/09/20 07:31:19;;;;;;;3.00;2.80;;;21.10;90.50;;;;;;5076161;28;20562;-71
2023/09/20 07:33:47;;;;;;;2.93;2.40;;;21.10;90.60;;;;;;5027819;28;20495;-70
2023/09/20 07:36:13;;;;;;;3.23;2.93;;;21.10;90.60;;;;;;5015293;28;20987;-70
2023/09/20 07:38:44;;;;;;;3.67;3.30;;;21.10;90.60;;;;;;5029254;28;20447;-70
2023/09/20 07:41:14;;;;;;;3.47;2.70;;;21.10;90.60;;;;;;5029222;28;20460;-70
2023/09/20 07:43:45;;;;;;;4.40;3.23;;;21.10;90.60;;;;;;5038894;28;20487;-70
2023/09/20 07:46:15;;;;;;;3.43;3.20;;;21.10;90.70;;;;;;5021256;28;20477;-71
2023/09/20 07:48:48;;;;;;;3.50;3.20;;;21.10;90.70;;;;;;5021788;28;20448;-71
2023/09/20 07:51:14;;;;;;;3.10;2.90;;;21.10;90.70;;;;;;5037626;28;20978;-71
2023/09/20 07:53:41;;;;;;;2.93;2.73;;;21.10;90.70;;;;;;5037339;28;20450;-70
2023/09/20 07:56:11;;;;;;;4.20;3.30;;;21.10;90.80;;;;;;5063162;28;20420;-70
2023/09/20 07:58:44;;;;;;;5.00;3.67;;;21.10;90.80;;;;;;5047735;28;20440;-70
2023/09/20 08:01:18;;;;;;;3.60;3.30;;;21.00;90.70;;;;;;5045822;28;20527;-70
2023/09/20 08:03:53;;;;;;;3.00;2.70;;;21.10;90.80;;;;;;5027561;28;20996;-70
2023/09/20 08:06:29;;;;;;;3.33;3.03;;;21.10;90.90;;;;;;5048297;28;21266;-71
2023/09/20 08:08:58;;;;;;;4.43;3.20;;;21.10;90.90;;;;;;5049704;28;20434;-71
2023/09/20 08:11:28;;;;;;;3.57;3.33;;;21.10;90.90;;;;;;5045853;28;20464;-70
2023/09/20 08:13:56;;;;;;;4.60;3.07;;;21.10;90.90;;;;;;5019680;28;20526;-70
2023/09/20 08:16:25;;;;;;;3.20;2.90;;;21.10;91.00;;;;;;5073443;28;20427;-70
2023/09/20 08:21:36;;;;;;;3.30;3.00;;;21.10;90.90;;;;;;5045208;28;20456;-70
2023/09/20 09:00:24;;;;;;;3.47;3.17;;;21.10;91.30;;;;;;5065509;28;20420;-70
2023/09/20 09:02:54;;;;;;;3.57;3.33;;;21.10;91.30;;;;;;5026522;28;20459;-71
2023/09/20 09:05:22;;;;;;;5.03;3.03;;;21.10;91.30;;;;;;5051221;28;21335;-71
2023/09/20 09:07:51;;;;;;;4.00;3.40;;;21.10;91.30;;;;;;5029163;28;20476;-70
2023/09/20 09:10:21;;;;;;;3.47;3.17;;;21.10;91.30;;;;;;5026836;28;20443;-70
2023/09/20 09:12:47;;;;;;;3.50;3.20;;;21.10;91.30;;;;;;5025187;28;20447;-71
2023/09/20 09:15:16;;;;;;;4.10;3.80;;;21.10;91.40;;;;;;5020579;28;20447;-70
2023/09/20 09:17:43;;;;;;;6.60;3.13;;;21.10;91.50;;;;;;5043462;28;20851;-70
2023/09/20 09:20:11;;;;;;;4.27;3.87;;;21.10;91.40;;;;;;5027292;28;20443;-71
2023/09/20 09:22:42;;;;;;;4.83;2.97;;;21.20;91.50;;;;;;5043753;28;20980;-70
2023/09/20 09:25:13;;;;;;;4.03;3.47;;;21.20;91.60;;;;;;5049967;28;20579;-70
2023/09/20 09:27:43;;;;;;;3.00;2.80;;;21.10;91.50;;;;;;5066463;28;20503;-70
2023/09/20 09:30:17;;;;;;;3.37;3.07;;;21.20;91.50;;;;;;5024511;28;20440;-70
2023/09/20 09:32:47;;;;;;;4.10;3.57;;;21.20;91.60;;;;;;5065851;28;20427;-70
2023/09/20 09:35:18;;;;;;;4.53;2.97;;;21.20;91.80;;;;;;5019818;28;20433;-70
2023/09/20 09:37:47;;;;;;;3.67;3.37;;;21.20;91.80;;;;;;5049912;28;20446;-70
2023/09/20 09:40:16;;;;;;;3.70;3.40;;;21.20;91.80;;;;;;5013533;28;20487;-70
2023/09/20 09:42:45;;;;;;;3.70;3.20;;;21.20;91.90;;;;;;5043491;28;21426;-70
2023/09/20 09:45:14;;;;;;;3.17;2.80;;;21.20;91.80;;;;;;5019696;28;20492;-70
2023/09/20 09:47:41;;;;;;;2.80;2.60;;;21.20;91.90;;;;;;5053562;28;20535;-70
2023/09/20 09:50:08;;;;;;;3.17;2.97;;;21.20;92.00;;;;;;5012062;28;20531;-70
2023/09/20 09:52:38;;;;;;;2.90;2.70;;;21.20;91.90;;;;;;5050841;28;20474;-70
2023/09/20 09:55:08;;;;;;;3.10;2.87;;;21.20;91.90;;;;;;5019587;28;20433;-70
2023/09/20 09:57:37;;;;;;;4.17;3.10;;;21.30;91.90;;;;;;5037134;28;21039;-70
2023/09/20 10:00:05;;;;;;;3.40;3.00;;;21.30;91.90;;;;;;5035690;28;21228;-70
2023/09/20 10:02:44;;;;;;;5.20;3.10;;;21.30;92.00;;;;;;5037001;28;20554;-70
2023/09/20 10:05:13;;;;;;;4.47;3.10;;;21.30;92.00;;;;;;5052790;28;20827;-70
2023/09/20 10:07:46;;;;;;;3.00;2.80;;;21.30;92.00;;;;;;5050239;28;20532;-71
2023/09/20 10:10:16;;;;;;;3.30;3.00;;;21.30;92.00;;;;;;5042062;28;20428;-70
2023/09/20 10:12:48;;;;;;;3.43;3.13;;;21.30;92.10;;;;;;5009753;28;20460;-71
2023/09/20 10:15:19;;;;;;;3.00;2.70;;;21.30;92.10;;;;;;5032899;28;20843;-70
2023/09/20 10:17:52;;;;;;;6.00;3.20;;;21.40;92.10;;;;;;5001899;28;20420;-71
2023/09/20 10:20:18;;;;;;;3.60;2.90;;;21.40;92.10;;;;;;5047164;28;20512;-71
2023/09/20 10:22:47;;;;;;;3.27;2.97;;;21.40;92.10;;;;;;5041526;28;20455;-71
2023/09/20 10:25:36;;;;;;;3.57;3.27;;;21.40;92.10;;;;;;5062635;28;20466;-70
2023/09/20 10:28:16;;;;;;;3.13;2.83;;;21.40;92.00;;;;;;5053011;28;20711;-71
2023/09/20 10:31:03;;;;;;;3.37;3.07;;;21.50;92.10;;;;;;5014975;28;20471;-71
2023/09/20 10:33:45;;;;;;;3.50;3.30;;;21.50;92.10;;;;;;5052768;28;20429;-70
2023/09/20 10:36:20;;;;;;;5.60;3.37;;;21.50;92.10;;;;;;5053249;28;21147;-70
2023/09/20 10:38:48;;;;;;;3.23;2.97;;;21.50;92.10;;;;;;5009786;28;20478;-71
2023/09/20 10:41:16;;;;;;;5.73;3.00;;;21.50;92.10;;;;;;5041081;28;20459;-70
2023/09/20 10:43:46;;;;;;;4.53;2.60;;;21.50;92.10;;;;;;5059531;28;20437;-70
2023/09/20 10:46:19;;;;;;;4.30;3.40;;;21.50;92.10;;;;;;5041473;28;20570;-71
2023/09/20 10:48:50;;;;;;;3.33;3.00;;;21.60;92.20;;;;;;5041758;28;20441;-70
2023/09/20 10:51:38;;;;;;;2.80;2.60;;;21.60;92.20;;;;;;5041350;28;20467;-70
2023/09/20 10:54:29;;;;;;;5.80;2.90;;;21.60;92.20;;;;;;5037633;28;20527;-70
2023/09/20 10:57:04;;;;;;;3.47;3.17;;;21.60;92.30;;;;;;5039384;28;20438;-70
2023/09/20 10:59:36;;;;;;;3.40;3.10;;;21.60;92.20;;;;;;5041454;28;20447;-70
2023/09/20 11:02:16;;;;;;;2.87;2.67;;;21.60;92.10;;;;;;5037969;28;20452;-71
2023/09/20 11:04:42;;;;;;;3.47;3.17;;;21.70;92.10;;;;;;5029949;28;20427;-71
2023/09/20 11:07:09;;;;;;;3.60;3.20;;;21.70;92.10;;;;;;5072023;28;20473;-70
2023/09/20 11:09:38;;;;;;;4.13;2.80;;;21.70;92.00;;;;;;5037445;28;20454;-70
2023/09/20 11:12:08;;;;;;;2.77;2.57;;;21.70;92.00;;;;;;5063091;28;20480;-70
2023/09/20 11:14:41;;;;;;;2.83;2.63;;;21.70;92.00;;;;;;5062068;28;20456;-70
2023/09/20 11:17:08;;;;;;;3.27;2.70;;;21.70;92.00;;;;;;5037445;28;21457;-70
2023/09/20 11:19:38;;;;;;;2.80;2.60;;;21.80;92.10;;;;;;5062207;28;20985;-70
2023/09/20 11:22:07;;;;;;;3.67;2.83;;;21.80;92.00;;;;;;5028522;28;20491;-70
2023/09/20 11:24:36;;;;;;;3.20;2.90;;;21.80;91.90;;;;;;5026610;28;21278;-71
2023/09/20 11:27:06;;;;;;;2.93;2.73;;;21.70;91.80;;;;;;5061720;28;20483;-70
2023/09/20 11:29:38;;;;;;;3.13;2.80;;;21.80;91.90;;;;;;5049077;28;20847;-71
2023/09/20 11:32:09;;;;;;;2.80;2.60;;;21.80;91.80;;;;;;5024784;28;20552;-70
2023/09/20 11:35:01;;;;;;;2.97;2.50;;;21.90;91.80;;;;;;5041480;28;20437;-70
2023/09/20 11:37:32;;;;;;;2.77;2.50;;;21.90;91.80;;;;;;5029671;28;20436;-70
2023/09/20 11:40:00;;;;;;;3.70;3.03;;;21.90;91.80;;;;;;5077474;28;20425;-71
2023/09/20 11:42:34;;;;;;;3.60;3.30;;;21.90;91.70;;;;;;5045699;28;20452;-71
2023/09/20 11:45:05;;;;;;;2.57;2.30;;;21.90;91.70;;;;;;5052794;28;20455;-71
2023/09/20 11:47:34;;;;;;;3.30;3.00;;;22.00;91.60;;;;;;5031080;28;20429;-71
2023/09/20 11:50:09;;;;;;;2.30;2.20;;;21.90;91.50;;;;;;5027139;28;20926;-70
2023/09/20 11:52:37;;;;;;;3.20;2.90;;;22.00;91.50;;;;;;5029994;28;20551;-70
2023/09/20 11:55:04;;;;;;;3.07;2.87;;;22.00;91.40;;;;;;5043924;28;20527;-70
2023/09/20 11:57:35;;;;;;;3.97;3.00;;;22.00;91.20;;;;;;5028489;28;21351;-70
2023/09/20 12:00:03;;;;;;;2.60;2.40;;;22.00;91.20;;;;;;5056934;28;20432;-71
2023/09/20 12:02:38;;;;;;;2.50;2.30;;;22.00;91.10;;;;;;5037731;28;20505;-70
2023/09/20 12:05:05;;;;;;;3.70;2.70;;;22.10;91.10;;;;;;5057743;28;20409;-70
2023/09/20 12:07:36;;;;;;;3.60;3.30;;;22.10;91.50;;;;;;5026015;28;20505;-70
2023/09/20 12:10:02;;;;;;;4.93;2.60;;;22.10;91.10;;;;;;5073029;28;20447;-71
2023/09/20 12:12:32;;;;;;;2.30;2.20;;;22.10;91.00;;;;;;5051124;28;20465;-71
2023/09/20 12:14:58;;;;;;;3.50;2.93;;;22.10;91.00;;;;;;5022700;28;20418;-70
2023/09/20 12:17:27;;;;;;;4.47;2.70;;;22.20;90.90;;;;;;5035061;28;21272;-70
2023/09/20 12:19:53;;;;;;;2.60;2.40;;;22.20;90.90;;;;;;5046785;28;20428;-70
2023/09/20 12:22:20;;;;;;;2.77;2.57;;;22.20;90.80;;;;;;5020916;28;21297;-71
2023/09/20 12:24:46;;;;;;;3.20;2.83;;;22.20;90.80;;;;;;5021337;28;21108;-70
2023/09/20 12:27:11;;;;;;;2.47;2.37;;;22.30;90.80;;;;;;5012494;28;20977;-70
2023/09/20 12:29:41;;;;;;;3.13;2.83;;;22.30;90.70;;;;;;5035924;28;20410;-70
2023/09/20 12:32:07;;;;;;;2.70;2.50;;;22.30;90.70;;;;;;5063962;28;20434;-71
2023/09/20 12:34:35;;;;;;;2.80;2.63;;;22.30;90.70;;;;;;5053662;28;20423;-70
2023/09/20 12:37:04;;;;;;;3.10;2.60;;;22.30;90.70;;;;;;5021819;28;20438;-70
2023/09/20 12:39:30;;;;;;;3.93;3.30;;;22.40;90.80;;;;;;5021663;28;20468;-71
2023/09/20 12:41:56;;;;;;;2.80;2.60;;;22.40;90.70;;;;;;5039162;28;20523;-71
2023/09/20 12:44:22;;;;;;;3.10;2.80;;;22.40;90.60;;;;;;5020274;28;20445;-70
2023/09/20 12:46:48;;;;;;;4.30;2.93;;;22.40;90.60;;;;;;5021795;28;20472;-71
2023/09/20 12:49:14;;;;;;;3.07;2.87;;;22.40;90.50;;;;;;5061165;28;20433;-70
2023/09/20 12:51:45;;;;;;;6.30;3.23;;;22.40;90.50;;;;;;5043482;28;20507;-71
2023/09/20 12:54:16;;;;;;;3.47;3.17;;;22.50;90.60;;;;;;5051614;28;20464;-70
2023/09/20 12:56:45;;;;;;;3.50;3.00;;;22.50;90.60;;;;;;5020878;28;20445;-70
2023/09/20 12:59:13;;;;;;;3.33;3.03;;;22.50;90.60;;;;;;5061611;28;20474;-70
2023/09/20 13:01:42;;;;;;;3.07;2.87;;;22.50;90.50;;;;;;5043702;28;21035;-70
2023/09/20 13:04:10;;;;;;;3.10;2.90;;;22.50;90.50;;;;;;5052550;28;21079;-70
2023/09/20 13:06:36;;;;;;;3.20;2.80;;;22.60;90.50;;;;;;5035463;28;20494;-71
2023/09/20 13:09:02;;;;;;;3.57;3.27;;;22.60;90.50;;;;;;5009428;28;20471;-71
2023/09/20 13:11:28;;;;;;;3.73;3.37;;;22.60;90.40;;;;;;5029129;28;20508;-70
2023/09/20 13:13:55;;;;;;;3.87;2.80;;;22.60;90.40;;;;;;5059035;28;21136;-70
2023/09/20 13:16:22;;;;;;;3.00;2.80;;;22.60;90.40;;;;;;5042576;28;20570;-71
2023/09/20 13:18:50;;;;;;;3.10;2.80;;;22.70;90.40;;;;;;5060894;28;20520;-71
2023/09/20 13:21:16;;;;;;;3.07;2.70;;;22.70;90.40;;;;;;5021303;28;20441;-71
2023/09/20 13:23:45;;;;;;;3.40;3.10;;;22.70;90.40;;;;;;5039032;28;20432;-71
2023/09/20 13:26:11;;;;;;;3.60;3.30;;;22.70;90.30;;;;;;5061019;28;20478;-71
2023/09/20 13:28:41;;;;;;;3.23;3.03;;;22.70;90.20;;;;;;5026542;28;20449;-70
2023/09/20 13:31:11;;;;;;;3.43;2.90;;;22.70;90.20;;;;;;5010934;28;21298;-69
2023/09/20 13:33:40;;;;;;;3.53;3.20;;;22.80;90.20;;;;;;5043937;28;20441;-69
2023/09/20 13:36:06;;;;;;;3.23;3.03;;;22.80;90.30;;;;;;5049324;28;20967;-69